createdAt,value
2019-03-20T00:00:30.924Z,69.60
2019-03-20T00:54:26.477Z,66.84
2019-03-20T00:56:55.934Z,67.33
2019-03-20T00:59:25.399Z,67.82
2019-03-20T01:01:54.775Z,65.38
2019-03-20T01:04:24.184Z,65.03
2019-03-20T01:06:53.641Z,65.46
2019-03-20T01:09:23.104Z,65.61
2019-03-20T01:11:53.283Z,65.77
2019-03-20T01:14:23.273Z,65.67
2019-03-20T01:16:53.680Z,65.48
2019-03-20T01:19:23.773Z,65.91
2019-03-20T01:21:54.166Z,65.48
2019-03-20T01:24:24.410Z,66.00
2019-03-20T01:26:54.659Z,66.98
2019-03-20T01:29:24.897Z,66.66
2019-03-20T01:31:55.110Z,65.84
2019-03-20T01:34:25.313Z,64.89
2019-03-20T01:36:55.754Z,65.54
2019-03-20T01:39:25.983Z,66.49
2019-03-20T01:41:56.405Z,66.18
2019-03-20T01:44:26.441Z,65.07
2019-03-20T01:46:55.821Z,64.64
2019-03-20T01:49:25.225Z,64.13
2019-03-20T01:51:54.626Z,64.81
2019-03-20T01:54:24.008Z,66.09
2019-03-20T01:56:53.375Z,66.47
2019-03-20T01:59:23.798Z,67.22
2019-03-20T02:01:53.191Z,64.06
2019-03-20T02:04:22.559Z,63.25
2019-03-20T02:06:52.018Z,65.48
2019-03-20T02:09:21.395Z,65.06
2019-03-20T02:11:50.780Z,62.21
2019-03-20T02:14:20.602Z,64.37
2019-03-20T02:16:49.969Z,63.31
2019-03-20T02:19:19.348Z,64.99
2019-03-20T02:21:49.500Z,64.55
2019-03-20T02:24:19.794Z,64.67
2019-03-20T02:26:49.926Z,65.53
2019-03-20T02:29:20.367Z,64.57
2019-03-20T02:31:50.623Z,65.92
2019-03-20T02:34:21.076Z,66.39
2019-03-20T02:36:51.259Z,67.45
2019-03-20T02:39:21.507Z,67.19
2019-03-20T02:41:52.193Z,67.51
2019-03-20T02:44:22.078Z,66.96
2019-03-20T02:46:52.272Z,68.12
2019-03-20T02:49:22.650Z,68.93
2019-03-20T02:51:52.819Z,68.40
2019-03-20T02:54:22.212Z,68.07
2019-03-20T02:56:51.598Z,68.58
2019-03-20T02:59:21.248Z,68.00
2019-03-20T03:01:50.634Z,66.92
2019-03-20T03:04:20.023Z,66.83
2019-03-20T03:06:49.470Z,65.15
2019-03-20T03:09:18.920Z,65.54
2019-03-20T03:11:48.309Z,66.35
2019-03-20T03:14:17.979Z,65.26
2019-03-20T03:16:47.355Z,64.95
2019-03-20T03:19:16.760Z,65.36
2019-03-20T03:21:46.288Z,65.14
2019-03-20T03:24:15.642Z,63.73
2019-03-20T03:26:45.560Z,64.66
2019-03-20T03:29:14.951Z,65.33
2019-03-20T03:31:44.322Z,65.68
2019-03-20T03:34:13.712Z,66.61
2019-03-20T03:36:43.156Z,66.29
2019-03-20T03:39:12.544Z,66.57
2019-03-20T03:41:41.927Z,64.84
2019-03-20T03:44:11.308Z,63.90
2019-03-20T03:46:40.690Z,65.50
2019-03-20T03:49:10.058Z,65.08
2019-03-20T03:51:39.482Z,65.90
2019-03-20T03:54:08.846Z,64.68
2019-03-20T03:56:38.597Z,65.60
2019-03-20T03:59:08.049Z,65.26
2019-03-20T04:01:37.436Z,64.66
2019-03-20T04:04:06.827Z,64.30
2019-03-20T04:06:37.209Z,64.20
2019-03-20T04:09:07.336Z,65.36
2019-03-20T04:11:36.723Z,64.85
2019-03-20T04:14:06.129Z,63.50
2019-03-20T04:16:35.516Z,64.65
2019-03-20T04:19:05.054Z,65.02
2019-03-20T04:21:35.477Z,65.99
2019-03-20T04:24:05.004Z,65.93
2019-03-20T04:26:34.394Z,63.89
2019-03-20T04:29:04.429Z,64.22
2019-03-20T04:31:33.837Z,65.84
2019-03-20T04:34:03.200Z,64.89
2019-03-20T04:36:32.578Z,65.02
2019-03-20T04:39:01.959Z,64.96
2019-03-20T04:41:31.620Z,64.12
2019-03-20T04:44:01.006Z,64.84
2019-03-20T04:46:30.382Z,60.17
2019-03-20T04:49:00.842Z,64.42
2019-03-20T04:51:30.287Z,64.83
2019-03-20T04:53:59.670Z,65.67
2019-03-20T04:56:29.053Z,64.64
2019-03-20T04:58:58.452Z,63.57
2019-03-20T05:01:27.854Z,64.52
2019-03-20T05:03:57.258Z,65.32
2019-03-20T05:06:26.673Z,64.64
2019-03-20T05:08:56.048Z,65.51
2019-03-20T05:11:25.437Z,66.15
2019-03-20T05:13:54.826Z,65.46
2019-03-20T05:16:24.210Z,64.62
2019-03-20T05:18:53.602Z,63.95
2019-03-20T05:21:22.991Z,66.25
2019-03-20T05:23:52.418Z,66.32
2019-03-20T05:26:21.795Z,64.86
2019-03-20T05:28:51.459Z,65.07
2019-03-20T05:31:20.826Z,64.99
2019-03-20T05:33:50.205Z,66.32
2019-03-20T05:36:19.667Z,66.42
2019-03-20T05:38:49.045Z,65.57
2019-03-20T05:41:18.432Z,66.39
2019-03-20T05:43:47.810Z,67.05
2019-03-20T05:46:17.218Z,65.62
2019-03-20T05:48:46.600Z,62.86
2019-03-20T05:51:15.990Z,62.13
2019-03-20T05:53:45.366Z,61.81
2019-03-20T05:56:14.761Z,61.71
2019-03-20T05:58:44.630Z,60.46
2019-03-20T06:01:14.682Z,60.77
2019-03-20T06:03:45.135Z,59.57
2019-03-20T06:06:15.359Z,58.97
2019-03-20T06:08:45.719Z,59.09
2019-03-20T06:11:15.739Z,57.64
2019-03-20T06:13:45.135Z,57.05
2019-03-20T06:16:14.514Z,55.61
2019-03-20T06:18:43.954Z,54.25
2019-03-20T06:21:13.348Z,54.74
2019-03-20T06:23:42.730Z,51.94
2019-03-20T06:26:12.120Z,51.97
2019-03-20T06:28:41.796Z,53.40
2019-03-20T06:31:11.171Z,53.08
2019-03-20T06:33:40.627Z,50.57
2019-03-20T06:36:10.009Z,50.04
2019-03-20T06:38:39.407Z,50.39
2019-03-20T06:41:08.780Z,48.24
2019-03-20T06:43:38.156Z,48.32
2019-03-20T06:46:07.544Z,47.40
2019-03-20T06:48:36.929Z,45.66
2019-03-20T06:51:06.298Z,42.95
2019-03-20T06:53:36.959Z,40.16
2019-03-20T06:56:06.294Z,37.46
2019-03-20T06:58:35.760Z,36.55
2019-03-20T07:01:14.182Z,37.12
2019-03-20T07:04:10.469Z,33.19
2019-03-20T07:06:54.891Z,32.32
2019-03-20T07:09:44.208Z,33.06
2019-03-20T07:12:13.624Z,31.92
2019-03-20T07:14:43.036Z,35.73
2019-03-20T07:17:12.490Z,36.24
2019-03-20T07:19:41.875Z,30.37
2019-03-20T07:22:11.261Z,30.19
2019-03-20T07:24:40.639Z,31.00
2019-03-20T07:27:10.035Z,32.28
2019-03-20T07:29:39.424Z,33.43
2019-03-20T07:32:08.820Z,35.36
2019-03-20T07:34:38.195Z,32.35
2019-03-20T07:37:07.584Z,31.88
2019-03-20T07:39:36.965Z,30.98
2019-03-20T07:42:06.705Z,32.99
2019-03-20T07:44:36.074Z,34.52
2019-03-20T07:47:06.589Z,35.86
2019-03-20T07:49:36.274Z,33.66
2019-03-20T07:52:05.898Z,33.98
2019-03-20T07:54:36.243Z,34.43
2019-03-20T07:57:05.624Z,35.06
2019-03-20T07:59:35.176Z,34.13
2019-03-20T08:02:04.632Z,35.27
2019-03-20T08:04:34.019Z,36.29
2019-03-20T08:07:03.400Z,34.95
2019-03-20T08:09:32.881Z,32.32
2019-03-20T08:12:02.343Z,31.44
2019-03-20T08:14:31.727Z,33.46
2019-03-20T08:17:01.404Z,33.56
2019-03-20T08:19:31.734Z,33.29
2019-03-20T08:22:02.035Z,32.23
2019-03-20T08:24:32.258Z,31.21
2019-03-20T08:27:01.638Z,32.16
2019-03-20T08:29:31.018Z,30.72
2019-03-20T08:32:00.576Z,32.70
2019-03-20T08:34:29.998Z,30.20
2019-03-20T08:36:59.441Z,28.91
2019-03-20T08:39:28.827Z,29.80
2019-03-20T08:44:46.517Z,32.40
2019-03-20T08:47:17.015Z,31.50
2019-03-20T08:49:46.436Z,28.10
2019-03-20T08:52:15.812Z,31.00
2019-03-20T08:54:45.206Z,32.33
2019-03-20T08:57:14.636Z,29.42
2019-03-20T08:59:44.076Z,29.98
2019-03-20T09:02:13.525Z,30.67
2019-03-20T09:04:42.905Z,30.05
2019-03-20T09:07:12.291Z,29.93
2019-03-20T09:09:41.688Z,29.60
2019-03-20T09:14:59.344Z,28.98
2019-03-20T09:17:28.741Z,27.27
2019-03-20T09:19:58.134Z,25.98
2019-03-20T09:22:28.483Z,27.58
2019-03-20T09:24:57.867Z,29.41
2019-03-20T09:27:27.314Z,29.60
2019-03-20T09:29:56.697Z,31.57
2019-03-20T09:32:26.080Z,30.64
2019-03-20T09:34:55.459Z,30.64
2019-03-20T09:37:24.841Z,31.91
2019-03-20T09:39:54.222Z,31.21
2019-03-20T09:42:23.605Z,30.60
2019-03-20T09:44:53.007Z,31.01
2019-03-20T09:47:22.389Z,31.58
2019-03-20T09:49:51.829Z,30.00
2019-03-20T09:52:22.191Z,31.90
2019-03-20T09:54:51.647Z,30.78
2019-03-20T09:57:21.035Z,28.95
2019-03-20T09:59:50.428Z,29.34
2019-03-20T10:02:20.046Z,29.82
2019-03-20T10:04:49.421Z,31.98
2019-03-20T10:07:18.873Z,32.00
2019-03-20T10:09:48.250Z,31.33
2019-03-20T10:12:17.682Z,28.88
2019-03-20T10:14:47.100Z,30.19
2019-03-20T10:17:17.414Z,27.37
2019-03-20T10:19:46.799Z,29.76
2019-03-20T10:22:16.784Z,30.25
2019-03-20T10:24:46.161Z,26.01
2019-03-20T10:27:15.557Z,22.63
2019-03-20T10:29:44.935Z,24.68
2019-03-20T10:32:14.324Z,23.07
2019-03-20T10:34:43.712Z,23.65
2019-03-20T10:37:13.097Z,21.86
2019-03-20T10:39:43.452Z,21.57
2019-03-20T10:42:12.848Z,21.24
2019-03-20T10:44:42.229Z,21.72
2019-03-20T10:47:11.830Z,20.37
2019-03-20T10:49:41.176Z,21.07
2019-03-20T10:52:10.560Z,20.00
2019-03-20T10:54:39.952Z,19.58
2019-03-20T10:57:09.325Z,20.68
2019-03-20T10:59:39.685Z,20.61
2019-03-20T11:02:09.232Z,20.53
2019-03-20T11:04:38.700Z,20.38
2019-03-20T11:07:08.072Z,19.78
2019-03-20T11:09:37.475Z,20.56
2019-03-20T11:12:06.843Z,20.56
2019-03-20T11:14:36.235Z,21.30
2019-03-20T11:17:05.695Z,21.03
2019-03-20T11:19:35.183Z,19.98
2019-03-20T11:22:04.642Z,20.07
2019-03-20T11:24:34.165Z,19.32
2019-03-20T11:27:03.640Z,20.34
2019-03-20T11:29:33.086Z,20.74
2019-03-20T11:32:02.493Z,20.72
2019-03-20T11:34:31.870Z,19.75
2019-03-20T11:37:01.256Z,19.52
2019-03-20T11:39:30.723Z,19.47
2019-03-20T11:42:00.359Z,22.21
2019-03-20T11:44:29.739Z,24.68
2019-03-20T11:46:59.492Z,23.00
2019-03-20T11:49:28.896Z,18.31
2019-03-20T11:51:58.500Z,21.15
2019-03-20T11:54:27.892Z,20.80
2019-03-20T11:56:57.284Z,19.45
2019-03-20T11:59:26.705Z,19.14
2019-03-20T12:01:56.091Z,18.92
2019-03-20T12:04:26.661Z,18.29
2019-03-20T12:06:56.585Z,20.62
2019-03-20T12:09:25.970Z,24.46
2019-03-20T12:11:55.360Z,21.35
2019-03-20T12:14:24.747Z,18.96
2019-03-20T12:16:54.131Z,18.78
2019-03-20T12:19:23.519Z,19.46
2019-03-20T12:21:54.052Z,20.26
2019-03-20T12:24:23.443Z,19.86
2019-03-20T12:26:52.819Z,21.54
2019-03-20T12:29:22.225Z,20.60
2019-03-20T12:31:52.572Z,20.41
2019-03-20T12:34:22.240Z,20.69
2019-03-20T12:36:51.618Z,21.37
2019-03-20T12:39:20.999Z,19.60
2019-03-20T12:41:50.394Z,18.93
2019-03-20T12:44:19.776Z,20.79
2019-03-20T12:46:49.175Z,17.31
2019-03-20T12:49:18.555Z,18.44
2019-03-20T12:51:47.941Z,19.01
2019-03-20T12:54:17.333Z,18.06
2019-03-20T12:56:46.722Z,19.59
2019-03-20T12:59:17.190Z,21.53
2019-03-20T13:01:46.571Z,21.08
2019-03-20T13:04:15.943Z,16.89
2019-03-20T13:06:45.324Z,17.81
2019-03-20T13:09:14.720Z,19.74
2019-03-20T13:11:44.145Z,19.82
2019-03-20T13:14:13.537Z,19.52
2019-03-20T13:16:43.186Z,19.37
2019-03-20T13:19:12.577Z,21.72
2019-03-20T13:21:43.385Z,20.65
2019-03-20T13:24:13.855Z,19.21
2019-03-20T13:26:43.230Z,17.79
2019-03-20T13:29:12.622Z,21.97
2019-03-20T13:31:42.605Z,23.51
2019-03-20T13:34:12.192Z,22.05
2019-03-20T13:36:41.588Z,22.92
2019-03-20T13:39:11.058Z,20.04
2019-03-20T13:41:40.445Z,20.15
2019-03-20T13:44:09.827Z,19.62
2019-03-20T13:46:39.214Z,19.96
2019-03-20T13:49:08.586Z,19.33
2019-03-20T13:51:37.971Z,18.91
2019-03-20T13:54:07.431Z,20.97
2019-03-20T13:56:36.815Z,19.71
2019-03-20T13:59:06.279Z,19.66
2019-03-20T14:01:35.651Z,20.49
2019-03-20T14:04:05.190Z,19.00
2019-03-20T14:06:34.576Z,18.24
2019-03-20T14:09:05.536Z,21.26
2019-03-20T14:11:35.000Z,21.26
2019-03-20T14:14:04.444Z,18.80
2019-03-20T14:16:33.836Z,20.78
2019-03-20T14:19:03.278Z,18.21
2019-03-20T14:21:32.671Z,19.46
2019-03-20T14:24:03.023Z,20.12
2019-03-20T14:26:32.406Z,20.62
2019-03-20T14:29:03.709Z,23.23
2019-03-20T14:31:33.083Z,21.09
2019-03-20T14:34:02.477Z,21.80
2019-03-20T14:36:31.852Z,21.23
2019-03-20T14:39:01.236Z,22.44
2019-03-20T14:41:32.296Z,23.88
2019-03-20T14:44:01.678Z,23.86
2019-03-20T14:46:31.062Z,23.70
2019-03-20T14:49:00.436Z,22.69
2019-03-20T14:51:29.824Z,22.66
2019-03-20T14:53:59.207Z,22.83
2019-03-20T14:56:28.583Z,22.73
2019-03-20T14:58:57.963Z,22.44
2019-03-20T15:01:28.241Z,22.16
2019-03-20T15:03:57.634Z,21.73
2019-03-20T15:06:27.032Z,24.05
2019-03-20T15:08:56.408Z,24.05
2019-03-20T15:11:26.367Z,24.63
2019-03-20T15:13:56.738Z,25.08
2019-03-20T15:16:26.782Z,25.15
2019-03-20T15:18:56.162Z,26.67
2019-03-20T15:21:25.545Z,26.99
2019-03-20T15:23:54.939Z,26.15
2019-03-20T15:26:24.318Z,26.67
2019-03-20T15:28:53.715Z,25.44
2019-03-20T15:31:23.731Z,25.75
2019-03-20T15:33:53.145Z,25.66
2019-03-20T15:36:22.526Z,26.69
2019-03-20T15:38:51.913Z,27.55
2019-03-20T15:41:21.369Z,27.91
2019-03-20T15:43:50.745Z,27.38
2019-03-20T15:46:20.126Z,27.17
2019-03-20T15:48:49.507Z,26.95
2019-03-20T15:51:18.893Z,26.98
2019-03-20T15:53:48.286Z,26.92
2019-03-20T15:56:17.683Z,27.45
2019-03-20T15:58:47.069Z,27.99
2019-03-20T16:01:16.454Z,28.89
2019-03-20T16:03:47.981Z,28.45
2019-03-20T16:06:17.392Z,28.69
2019-03-20T16:08:46.782Z,29.53
2019-03-20T16:11:17.137Z,29.08
2019-03-20T16:13:46.531Z,29.51
2019-03-20T16:16:16.188Z,28.96
2019-03-20T16:18:45.859Z,28.96
2019-03-20T16:21:15.235Z,29.89
2019-03-20T16:23:44.615Z,29.66
2019-03-20T16:26:14.008Z,29.28
2019-03-20T16:28:43.398Z,29.30
2019-03-20T16:31:12.777Z,30.01
2019-03-20T16:33:42.197Z,29.27
2019-03-20T16:36:11.590Z,30.90
2019-03-20T16:38:40.968Z,29.46
2019-03-20T16:41:16.831Z,29.77
2019-03-20T16:43:41.457Z,29.20
2019-03-20T16:46:11.944Z,29.49
2019-03-20T16:48:41.307Z,28.90
2019-03-20T16:51:10.754Z,29.52
2019-03-20T16:53:40.649Z,31.44
2019-03-20T16:56:11.556Z,30.04
2019-03-20T16:58:41.697Z,31.31
2019-03-20T17:01:11.097Z,31.73
2019-03-20T17:03:40.490Z,31.50
2019-03-20T17:06:09.883Z,30.63
2019-03-20T17:08:40.251Z,31.85
2019-03-20T17:11:09.635Z,31.91
2019-03-20T17:13:39.007Z,32.52
2019-03-20T17:16:09.389Z,33.39
2019-03-20T17:18:38.760Z,32.43
2019-03-20T17:21:08.210Z,33.55
2019-03-20T17:23:37.587Z,33.31
2019-03-20T17:26:07.037Z,33.34
2019-03-20T17:28:36.432Z,33.45
2019-03-20T17:31:05.882Z,33.59
2019-03-20T17:33:36.251Z,33.96
2019-03-20T17:36:05.699Z,34.31
2019-03-20T17:38:35.073Z,34.37
2019-03-20T17:41:04.777Z,34.48
2019-03-20T17:43:34.161Z,36.41
2019-03-20T17:46:03.836Z,38.02
2019-03-20T17:48:33.200Z,39.46
2019-03-20T17:51:02.600Z,41.44
2019-03-20T17:53:31.998Z,42.12
2019-03-20T17:56:01.398Z,42.84
2019-03-20T17:58:30.789Z,44.59
2019-03-20T18:01:00.208Z,44.43
2019-03-20T18:03:30.369Z,45.36
2019-03-20T18:05:59.886Z,45.66
2019-03-20T18:08:29.344Z,45.18
2019-03-20T18:10:58.777Z,44.40
2019-03-20T18:13:28.167Z,46.96
2019-03-20T18:15:57.547Z,45.85
2019-03-20T18:18:26.933Z,44.89
2019-03-20T18:20:56.388Z,46.40
2019-03-20T18:23:25.764Z,47.36
2019-03-20T18:25:55.161Z,48.75
2019-03-20T18:28:25.017Z,47.30
2019-03-20T18:30:54.978Z,48.57
2019-03-20T18:33:24.375Z,48.60
2019-03-20T18:35:53.792Z,48.34
2019-03-20T18:38:23.166Z,49.50
2019-03-20T18:40:52.548Z,49.81
2019-03-20T18:43:21.919Z,49.94
2019-03-20T18:45:52.364Z,49.29
2019-03-20T18:48:21.893Z,48.86
2019-03-20T18:50:51.279Z,48.16
2019-03-20T18:53:20.656Z,48.52
2019-03-20T18:55:50.048Z,49.33
2019-03-20T18:58:19.434Z,50.04
2019-03-20T19:00:48.815Z,50.67
2019-03-20T19:03:35.934Z,49.23
2019-03-20T19:06:14.664Z,50.16
2019-03-20T19:08:44.059Z,50.34
2019-03-20T19:11:13.516Z,50.83
2019-03-20T19:13:42.914Z,49.21
2019-03-20T19:16:12.291Z,49.46
2019-03-20T19:18:41.666Z,49.17
2019-03-20T19:21:11.066Z,49.66
2019-03-20T19:23:40.458Z,49.90
2019-03-20T19:26:09.838Z,51.08
2019-03-20T19:28:39.234Z,52.16
2019-03-20T19:31:09.174Z,52.48
2019-03-20T19:33:39.322Z,52.61
2019-03-20T19:36:09.286Z,51.36
2019-03-20T19:38:39.287Z,51.61
2019-03-20T19:41:09.342Z,51.39
2019-03-20T19:43:39.406Z,51.39
2019-03-20T19:46:09.890Z,52.45
2019-03-20T19:48:39.472Z,52.65
2019-03-20T19:51:09.573Z,52.31
2019-03-20T19:53:39.597Z,52.55
2019-03-20T19:56:09.787Z,52.62
2019-03-20T19:58:39.832Z,51.19
2019-03-20T20:01:10.100Z,51.34
2019-03-20T20:03:39.778Z,53.65
2019-03-20T20:06:11.275Z,52.17
2019-03-20T20:08:40.241Z,51.80
2019-03-20T20:11:09.641Z,52.66
2019-03-20T20:13:39.032Z,53.26
2019-03-20T20:16:08.429Z,54.21
2019-03-20T20:18:37.800Z,54.22
2019-03-20T20:21:07.187Z,53.35
2019-03-20T20:23:36.676Z,52.98
2019-03-20T20:26:06.120Z,52.38
2019-03-20T20:28:35.524Z,52.38
2019-03-20T20:31:04.972Z,52.69
2019-03-20T20:33:34.372Z,51.99
2019-03-20T20:36:03.780Z,52.84
2019-03-20T20:38:33.248Z,53.96
2019-03-20T20:41:02.932Z,54.81
2019-03-20T20:43:32.301Z,54.00
2019-03-20T20:46:01.680Z,54.74
2019-03-20T20:48:31.152Z,53.60
2019-03-20T20:51:00.515Z,53.22
2019-03-20T20:53:29.967Z,54.40
2019-03-20T20:55:59.363Z,54.40
2019-03-20T20:58:29.010Z,55.45
2019-03-20T21:00:58.425Z,56.18
2019-03-20T21:03:27.804Z,55.60
2019-03-20T21:05:57.259Z,55.21
2019-03-20T21:08:26.650Z,55.13
2019-03-20T21:10:56.097Z,55.74
2019-03-20T21:13:25.490Z,55.32
2019-03-20T21:15:54.930Z,55.82
2019-03-20T21:18:43.438Z,56.18
2019-03-20T21:21:13.862Z,55.43
2019-03-20T21:24:19.969Z,56.51
2019-03-20T21:27:26.385Z,54.88
2019-03-20T21:29:58.812Z,56.20
2019-03-20T21:32:51.717Z,58.67
2019-03-20T21:35:56.826Z,58.14
2019-03-20T21:38:25.062Z,57.75
2019-03-20T21:41:19.848Z,56.75
2019-03-20T21:44:26.691Z,58.21
2019-03-20T21:47:18.044Z,58.15
2019-03-20T21:49:47.501Z,58.31
2019-03-20T21:52:16.893Z,59.37
2019-03-20T21:55:08.979Z,60.23
2019-03-20T21:57:47.331Z,58.57
2019-03-20T22:00:47.052Z,58.01
2019-03-20T22:03:17.609Z,57.64
2019-03-20T22:05:59.021Z,58.03
2019-03-20T22:08:28.967Z,59.41
2019-03-20T22:11:01.399Z,58.81
2019-03-20T22:13:51.578Z,58.94
2019-03-20T22:16:35.540Z,58.57
2019-03-20T22:19:19.630Z,58.64
2019-03-20T22:22:17.566Z,58.52
2019-03-20T22:24:55.751Z,59.04
2019-03-20T22:27:47.391Z,58.47
2019-03-20T22:30:16.763Z,60.06
2019-03-20T22:33:04.301Z,59.03
2019-03-20T22:35:42.796Z,59.34
2019-03-20T22:38:15.265Z,60.17
2019-03-20T22:41:08.766Z,60.33
2019-03-20T22:43:47.142Z,60.56
2019-03-20T22:46:49.494Z,60.61
2019-03-20T22:49:33.650Z,60.23
2019-03-20T22:52:18.081Z,60.86
2019-03-20T22:55:06.792Z,61.48
2019-03-20T22:58:00.945Z,60.29
2019-03-20T23:00:32.285Z,60.45
2019-03-20T23:03:05.351Z,61.10
2019-03-20T23:05:34.802Z,62.52
2019-03-20T23:08:14.780Z,61.86
2019-03-20T23:10:47.091Z,60.94
2019-03-20T23:13:19.273Z,61.03
2019-03-20T23:15:47.931Z,61.20
2019-03-20T23:18:17.398Z,60.99
2019-03-20T23:20:46.768Z,61.52
2019-03-20T23:23:16.150Z,60.96
2019-03-20T23:25:45.599Z,61.85
2019-03-20T23:28:15.050Z,60.80
2019-03-20T23:30:44.855Z,60.52
2019-03-20T23:33:14.298Z,61.75
2019-03-20T23:35:43.748Z,61.54
2019-03-20T23:38:13.987Z,62.71
2019-03-20T23:40:43.752Z,62.94
2019-03-20T23:43:13.953Z,61.73
2019-03-20T23:45:44.438Z,61.12
2019-03-20T23:48:37.668Z,60.88
2019-03-20T23:51:19.746Z,61.92
2019-03-20T23:53:51.087Z,61.15
2019-03-20T23:56:20.708Z,63.84
2019-03-20T23:58:50.107Z,63.05
